GLO1924 SBBR-SBPS
Flight info
| Callsign | GLO1924 |
|---|---|
| Flight time | 1h 21m |
| Altitude | 37000 |
| Route | VUTM1B SAVPU DCT EVPIV DCT IVPEG OSUN1A |
| Aircraft | B737/M-SDFGIKRWXY/EB1D1 |
Departure
| Time | 2026-04-30 02:17 |
|---|---|
| Airport | Presidente Juscelino Kubitschek International Airport (SBBR) |
Arrival
| Time | 2026-04-30 03:38 |
|---|---|
| Airport | Porto Seguro International Airport (SBPS) |
| Time | Latitude | Longitude | Altitude | Speed | Heading |
|---|---|---|---|---|---|
| 2026-04-30 01:52 | -15.87127 | -47.91861 | 3471 ft | 0 kts | 176° |
| 2026-04-30 02:05 | -15.87107 | -47.91863 | 3471 ft | 4 kts | 178° |
| 2026-04-30 02:05 | -15.87085 | -47.91859 | 3471 ft | 4 kts | 210° |
| 2026-04-30 02:05 | -15.87069 | -47.91842 | 3471 ft | 4 kts | 256° |
| 2026-04-30 02:06 | -15.87066 | -47.91818 | 3471 ft | 2 kts | 266° |
| 2026-04-30 02:06 | -15.87068 | -47.91840 | 3471 ft | 4 kts | 265° |
| 2026-04-30 02:06 | -15.87065 | -47.91867 | 3471 ft | 4 kts | 285° |
| 2026-04-30 02:06 | -15.87052 | -47.91891 | 3470 ft | 4 kts | 309° |
| 2026-04-30 02:07 | -15.87031 | -47.91898 | 3470 ft | 4 kts | 6° |
| 2026-04-30 02:07 | -15.87019 | -47.91880 | 3471 ft | 4 kts | 70° |
| 2026-04-30 02:07 | -15.87017 | -47.91862 | 3471 ft | 0 kts | 86° |
| 2026-04-30 02:09 | -15.87017 | -47.91861 | 3471 ft | 0 kts | 86° |
| 2026-04-30 02:09 | -15.87016 | -47.91853 | 3471 ft | 2 kts | 86° |
| 2026-04-30 02:09 | -15.87015 | -47.91832 | 3471 ft | 4 kts | 86° |
| 2026-04-30 02:10 | -15.87012 | -47.91789 | 3470 ft | 8 kts | 86° |
| 2026-04-30 02:10 | -15.87008 | -47.91727 | 3470 ft | 10 kts | 85° |
| 2026-04-30 02:10 | -15.86979 | -47.91663 | 3470 ft | 10 kts | 76° |
| 2026-04-30 02:10 | -15.86947 | -47.91602 | 3470 ft | 11 kts | 11° |
| 2026-04-30 02:11 | -15.86875 | -47.91605 | 3470 ft | 10 kts | 356° |
| 2026-04-30 02:11 | -15.86804 | -47.91609 | 3471 ft | 10 kts | 356° |
| 2026-04-30 02:11 | -15.86733 | -47.91614 | 3471 ft | 11 kts | 356° |
| 2026-04-30 02:11 | -15.86655 | -47.91619 | 3470 ft | 12 kts | 355° |
| 2026-04-30 02:12 | -15.86570 | -47.91626 | 3467 ft | 14 kts | 355° |
| 2026-04-30 02:12 | -15.86485 | -47.91655 | 3464 ft | 13 kts | 303° |
| 2026-04-30 02:12 | -15.86485 | -47.91748 | 3466 ft | 13 kts | 266° |
| 2026-04-30 02:12 | -15.86491 | -47.91840 | 3468 ft | 13 kts | 266° |
| 2026-04-30 02:13 | -15.86495 | -47.91900 | 3467 ft | 12 kts | 266° |
| 2026-04-30 02:13 | -15.86498 | -47.91952 | 3468 ft | 12 kts | 266° |
| 2026-04-30 02:13 | -15.86503 | -47.92037 | 3467 ft | 12 kts | 266° |
| 2026-04-30 02:13 | -15.86509 | -47.92120 | 3466 ft | 11 kts | 266° |
| 2026-04-30 02:14 | -15.86513 | -47.92186 | 3468 ft | 11 kts | 266° |
| 2026-04-30 02:14 | -15.86518 | -47.92265 | 3468 ft | 11 kts | 266° |
| 2026-04-30 02:14 | -15.86524 | -47.92351 | 3468 ft | 13 kts | 266° |
| 2026-04-30 02:14 | -15.86530 | -47.92449 | 3467 ft | 15 kts | 266° |
| 2026-04-30 02:15 | -15.86537 | -47.92565 | 3465 ft | 17 kts | 266° |
| 2026-04-30 02:15 | -15.86546 | -47.92692 | 3463 ft | 17 kts | 265° |
| 2026-04-30 02:15 | -15.86484 | -47.92768 | 3459 ft | 17 kts | 356° |
| 2026-04-30 02:15 | -15.86382 | -47.92735 | 3459 ft | 16 kts | 41° |
| 2026-04-30 02:16 | -15.86349 | -47.92631 | 3460 ft | 15 kts | 86° |
| 2026-04-30 02:16 | -15.86332 | -47.92386 | 3464 ft | 66 kts | 86° |
| 2026-04-30 02:16 | -15.86286 | -47.91665 | 3462 ft | 132 kts | 86° |
| 2026-04-30 02:16 | -15.86212 | -47.90521 | 3535 ft | 180 kts | 86° |
| 2026-04-30 02:17 | -15.86098 | -47.89185 | 4216 ft | 186 kts | 86° |
| 2026-04-30 02:17 | -15.85996 | -47.87859 | 5139 ft | 186 kts | 88° |
| 2026-04-30 02:17 | -15.85904 | -47.86424 | 5574 ft | 211 kts | 88° |
| 2026-04-30 02:17 | -15.85788 | -47.84822 | 5943 ft | 236 kts | 87° |
| 2026-04-30 02:18 | -15.85668 | -47.82999 | 6294 ft | 266 kts | 87° |
| 2026-04-30 02:18 | -15.85540 | -47.81081 | 7143 ft | 269 kts | 87° |
| 2026-04-30 02:18 | -15.85415 | -47.79102 | 7879 ft | 280 kts | 88° |
| 2026-04-30 02:18 | -15.85294 | -47.77021 | 8501 ft | 295 kts | 88° |
| 2026-04-30 02:19 | -15.85155 | -47.74913 | 9084 ft | 295 kts | 87° |
| 2026-04-30 02:19 | -15.84993 | -47.72758 | 9881 ft | 301 kts | 88° |
| 2026-04-30 02:19 | -15.84951 | -47.70580 | 10641 ft | 307 kts | 91° |
| 2026-04-30 02:19 | -15.84963 | -47.68280 | 10956 ft | 330 kts | 91° |
| 2026-04-30 02:20 | -15.85036 | -47.65840 | 11355 ft | 345 kts | 92° |
| 2026-04-30 02:20 | -15.85114 | -47.63328 | 12099 ft | 349 kts | 91° |
| 2026-04-30 02:20 | -15.85152 | -47.61409 | 12717 ft | 351 kts | 91° |
| 2026-04-30 02:20 | -15.85189 | -47.58838 | 13547 ft | 353 kts | 91° |
| 2026-04-30 02:21 | -15.85680 | -47.56327 | 14268 ft | 359 kts | 112° |
| 2026-04-30 02:21 | -15.87001 | -47.54129 | 14952 ft | 365 kts | 131° |
| 2026-04-30 02:21 | -15.88943 | -47.52397 | 15570 ft | 372 kts | 141° |
| 2026-04-30 02:21 | -15.91049 | -47.50797 | 16218 ft | 377 kts | 142° |
| 2026-04-30 02:22 | -15.93193 | -47.49204 | 16827 ft | 382 kts | 142° |
| 2026-04-30 02:22 | -15.95357 | -47.47575 | 17454 ft | 386 kts | 142° |
| 2026-04-30 02:22 | -15.97534 | -47.45906 | 18034 ft | 392 kts | 141° |
| 2026-04-30 02:22 | -15.99731 | -47.44206 | 18600 ft | 396 kts | 141° |
| 2026-04-30 02:23 | -16.01792 | -47.42310 | 19123 ft | 396 kts | 126° |
| 2026-04-30 02:23 | -16.03261 | -47.39905 | 19697 ft | 395 kts | 117° |
| 2026-04-30 02:23 | -16.04607 | -47.37404 | 20239 ft | 398 kts | 117° |
| 2026-04-30 02:23 | -16.05495 | -47.35724 | 20586 ft | 401 kts | 117° |
| 2026-04-30 02:24 | -16.07302 | -47.32306 | 21270 ft | 406 kts | 117° |
| 2026-04-30 02:24 | -16.08676 | -47.29728 | 21799 ft | 409 kts | 117° |
| 2026-04-30 02:24 | -16.10070 | -47.27132 | 22309 ft | 413 kts | 117° |
| 2026-04-30 02:24 | -16.11483 | -47.24518 | 22816 ft | 416 kts | 117° |
| 2026-04-30 02:25 | -16.12911 | -47.21881 | 23256 ft | 421 kts | 118° |
| 2026-04-30 02:25 | -16.14359 | -47.19211 | 23709 ft | 425 kts | 118° |
| 2026-04-30 02:25 | -16.15817 | -47.16524 | 24134 ft | 427 kts | 118° |
| 2026-04-30 02:25 | -16.17276 | -47.13835 | 24594 ft | 428 kts | 118° |
| 2026-04-30 02:26 | -16.18745 | -47.11128 | 25007 ft | 430 kts | 118° |
| 2026-04-30 02:26 | -16.20239 | -47.08372 | 25389 ft | 434 kts | 118° |
| 2026-04-30 02:26 | -16.21725 | -47.05627 | 25767 ft | 437 kts | 118° |
| 2026-04-30 02:26 | -16.23221 | -47.02864 | 26157 ft | 439 kts | 118° |
| 2026-04-30 02:27 | -16.24722 | -47.00088 | 26548 ft | 442 kts | 118° |
| 2026-04-30 02:27 | -16.25720 | -46.98242 | 26808 ft | 443 kts | 118° |
| 2026-04-30 02:27 | -16.27236 | -46.95439 | 27191 ft | 445 kts | 118° |
| 2026-04-30 02:27 | -16.28758 | -46.92624 | 27585 ft | 447 kts | 118° |
| 2026-04-30 02:28 | -16.30286 | -46.89797 | 27918 ft | 450 kts | 118° |
| 2026-04-30 02:28 | -16.32351 | -46.85973 | 28320 ft | 455 kts | 118° |
| 2026-04-30 02:28 | -16.33400 | -46.84028 | 28558 ft | 457 kts | 118° |
| 2026-04-30 02:28 | -16.34959 | -46.81136 | 28926 ft | 459 kts | 118° |
| 2026-04-30 02:29 | -16.36524 | -46.78230 | 29272 ft | 461 kts | 118° |
| 2026-04-30 02:29 | -16.38094 | -46.75315 | 29599 ft | 463 kts | 118° |
| 2026-04-30 02:29 | -16.39674 | -46.72379 | 29925 ft | 466 kts | 118° |
| 2026-04-30 02:29 | -16.41235 | -46.69476 | 30209 ft | 468 kts | 118° |
| 2026-04-30 02:30 | -16.42827 | -46.66515 | 30461 ft | 470 kts | 118° |
| 2026-04-30 02:30 | -16.44427 | -46.63538 | 30715 ft | 472 kts | 118° |
| 2026-04-30 02:30 | -16.45795 | -46.60428 | 30934 ft | 474 kts | 105° |
| 2026-04-30 02:30 | -16.46285 | -46.57044 | 31177 ft | 474 kts | 90° |
| 2026-04-30 02:31 | -16.46222 | -46.53609 | 31479 ft | 475 kts | 88° |
| 2026-04-30 02:31 | -16.46092 | -46.50167 | 31739 ft | 476 kts | 87° |
| 2026-04-30 02:31 | -16.45945 | -46.46720 | 32009 ft | 477 kts | 87° |
| 2026-04-30 02:31 | -16.45803 | -46.43266 | 32358 ft | 477 kts | 87° |
| 2026-04-30 02:32 | -16.45673 | -46.39780 | 32780 ft | 475 kts | 88° |
| 2026-04-30 02:32 | -16.45558 | -46.36345 | 33177 ft | 474 kts | 88° |
| 2026-04-30 02:32 | -16.45453 | -46.32921 | 33544 ft | 474 kts | 88° |
| 2026-04-30 02:32 | -16.45353 | -46.29488 | 33898 ft | 473 kts | 88° |
| 2026-04-30 02:33 | -16.45256 | -46.26064 | 34235 ft | 473 kts | 88° |
| 2026-04-30 02:33 | -16.45158 | -46.22645 | 34540 ft | 473 kts | 88° |
| 2026-04-30 02:33 | -16.45060 | -46.19220 | 34862 ft | 472 kts | 88° |
| 2026-04-30 02:33 | -16.44962 | -46.15811 | 35195 ft | 471 kts | 88° |
| 2026-04-30 02:34 | -16.44863 | -46.12409 | 35497 ft | 470 kts | 88° |
| 2026-04-30 02:34 | -16.44763 | -46.09004 | 35800 ft | 469 kts | 88° |
| 2026-04-30 02:34 | -16.44661 | -46.05605 | 36079 ft | 469 kts | 88° |
| 2026-04-30 02:34 | -16.44559 | -46.02220 | 36364 ft | 468 kts | 88° |
| 2026-04-30 02:35 | -16.44456 | -45.98829 | 36653 ft | 467 kts | 88° |
| 2026-04-30 02:35 | -16.44353 | -45.95451 | 36919 ft | 467 kts | 88° |
| 2026-04-30 02:35 | -16.44249 | -45.92079 | 37226 ft | 465 kts | 88° |
| 2026-04-30 02:35 | -16.44146 | -45.88716 | 37507 ft | 464 kts | 88° |
| 2026-04-30 02:36 | -16.44042 | -45.85311 | 37745 ft | 464 kts | 88° |
| 2026-04-30 02:36 | -16.43938 | -45.81952 | 37979 ft | 464 kts | 88° |
| 2026-04-30 02:36 | -16.43834 | -45.78594 | 38228 ft | 463 kts | 88° |
| 2026-04-30 02:36 | -16.43729 | -45.75243 | 38486 ft | 462 kts | 88° |
| 2026-04-30 02:37 | -16.43625 | -45.71910 | 38782 ft | 460 kts | 88° |
| 2026-04-30 02:37 | -16.43519 | -45.68583 | 38986 ft | 460 kts | 88° |
| 2026-04-30 02:37 | -16.43413 | -45.65246 | 39028 ft | 463 kts | 88° |
| 2026-04-30 02:38 | -16.43199 | -45.58541 | 39027 ft | 462 kts | 88° |
| 2026-04-30 02:38 | -16.42984 | -45.51881 | 39028 ft | 458 kts | 88° |
| 2026-04-30 02:39 | -16.42768 | -45.45267 | 39026 ft | 456 kts | 88° |
| 2026-04-30 02:39 | -16.42551 | -45.38687 | 39033 ft | 454 kts | 88° |
| 2026-04-30 02:40 | -16.42333 | -45.32126 | 39040 ft | 453 kts | 88° |
| 2026-04-30 02:40 | -16.42113 | -45.25559 | 39040 ft | 455 kts | 88° |
| 2026-04-30 02:41 | -16.41890 | -45.18969 | 39035 ft | 457 kts | 88° |
| 2026-04-30 02:41 | -16.41664 | -45.12347 | 39039 ft | 458 kts | 88° |
| 2026-04-30 02:42 | -16.41434 | -45.05696 | 39042 ft | 460 kts | 88° |
| 2026-04-30 02:42 | -16.41202 | -44.99019 | 39037 ft | 462 kts | 88° |
| 2026-04-30 02:43 | -16.40967 | -44.92334 | 39032 ft | 463 kts | 88° |
| 2026-04-30 02:43 | -16.40730 | -44.85636 | 39035 ft | 463 kts | 88° |
| 2026-04-30 02:44 | -16.40489 | -44.78898 | 39038 ft | 462 kts | 88° |
| 2026-04-30 02:44 | -16.40248 | -44.72218 | 39045 ft | 461 kts | 88° |
| 2026-04-30 02:45 | -16.40005 | -44.65545 | 39051 ft | 461 kts | 88° |
| 2026-04-30 02:45 | -16.39761 | -44.58883 | 39050 ft | 460 kts | 88° |
| 2026-04-30 02:46 | -16.39515 | -44.52245 | 39053 ft | 458 kts | 88° |
| 2026-04-30 02:46 | -16.39268 | -44.45618 | 39059 ft | 457 kts | 88° |
| 2026-04-30 02:47 | -16.39019 | -44.39008 | 39070 ft | 456 kts | 88° |
| 2026-04-30 02:47 | -16.38768 | -44.32414 | 39067 ft | 455 kts | 88° |
| 2026-04-30 02:48 | -16.38516 | -44.25827 | 39068 ft | 455 kts | 88° |
| 2026-04-30 02:48 | -16.38263 | -44.19253 | 39073 ft | 454 kts | 88° |
| 2026-04-30 02:49 | -16.38007 | -44.12693 | 39071 ft | 454 kts | 88° |
| 2026-04-30 02:49 | -16.37750 | -44.06129 | 39073 ft | 453 kts | 88° |
| 2026-04-30 02:50 | -16.37491 | -43.99570 | 39076 ft | 453 kts | 88° |
| 2026-04-30 02:50 | -16.37228 | -43.92970 | 39069 ft | 453 kts | 88° |
| 2026-04-30 02:51 | -16.36965 | -43.86410 | 39071 ft | 453 kts | 88° |
| 2026-04-30 02:51 | -16.36699 | -43.79850 | 39072 ft | 454 kts | 88° |
| 2026-04-30 02:52 | -16.36432 | -43.73289 | 39065 ft | 454 kts | 88° |
| 2026-04-30 02:52 | -16.36162 | -43.66723 | 39068 ft | 454 kts | 88° |
| 2026-04-30 02:53 | -16.35890 | -43.60158 | 39068 ft | 454 kts | 88° |
| 2026-04-30 02:53 | -16.35617 | -43.53593 | 39063 ft | 454 kts | 88° |
| 2026-04-30 02:54 | -16.35341 | -43.47035 | 39072 ft | 453 kts | 88° |
| 2026-04-30 02:54 | -16.35064 | -43.40482 | 39073 ft | 453 kts | 88° |
| 2026-04-30 02:55 | -16.34785 | -43.33927 | 39083 ft | 453 kts | 88° |
| 2026-04-30 02:55 | -16.34503 | -43.27377 | 39081 ft | 453 kts | 88° |
| 2026-04-30 02:56 | -16.34220 | -43.20829 | 39087 ft | 453 kts | 88° |
| 2026-04-30 02:56 | -16.33935 | -43.14273 | 39089 ft | 453 kts | 88° |
| 2026-04-30 02:57 | -16.33648 | -43.07725 | 39090 ft | 453 kts | 88° |
| 2026-04-30 02:57 | -16.33356 | -43.01127 | 39093 ft | 453 kts | 88° |
| 2026-04-30 02:58 | -16.33065 | -42.94570 | 39096 ft | 453 kts | 88° |
| 2026-04-30 02:58 | -16.32821 | -42.89123 | 39102 ft | 453 kts | 88° |
| 2026-04-30 02:59 | -16.32614 | -42.82570 | 39091 ft | 453 kts | 94° |
| 2026-04-30 02:59 | -16.33386 | -42.76072 | 39097 ft | 452 kts | 99° |
| 2026-04-30 03:00 | -16.34316 | -42.69605 | 39095 ft | 452 kts | 99° |
| 2026-04-30 03:00 | -16.35220 | -42.63136 | 39097 ft | 451 kts | 98° |
| 2026-04-30 03:01 | -16.36090 | -42.56671 | 39094 ft | 451 kts | 98° |
| 2026-04-30 03:01 | -16.36945 | -42.50212 | 39091 ft | 450 kts | 98° |
| 2026-04-30 03:02 | -16.37795 | -42.43754 | 39088 ft | 450 kts | 98° |
| 2026-04-30 03:02 | -16.38644 | -42.37295 | 39088 ft | 450 kts | 98° |
| 2026-04-30 03:03 | -16.39497 | -42.30797 | 39084 ft | 450 kts | 98° |
| 2026-04-30 03:03 | -16.40764 | -42.21113 | 39086 ft | 450 kts | 98° |
| 2026-04-30 03:04 | -16.41605 | -42.14663 | 39082 ft | 450 kts | 98° |
| 2026-04-30 03:04 | -16.42446 | -42.08205 | 39087 ft | 450 kts | 98° |
| 2026-04-30 03:05 | -16.43283 | -42.01759 | 39085 ft | 450 kts | 98° |
| 2026-04-30 03:05 | -16.44119 | -41.95302 | 39083 ft | 450 kts | 98° |
| 2026-04-30 03:06 | -16.44953 | -41.88845 | 39088 ft | 449 kts | 98° |
| 2026-04-30 03:06 | -16.45785 | -41.82392 | 39086 ft | 450 kts | 98° |
| 2026-04-30 03:07 | -16.46621 | -41.75894 | 39089 ft | 450 kts | 98° |
| 2026-04-30 03:07 | -16.47449 | -41.69432 | 39084 ft | 450 kts | 98° |
| 2026-04-30 03:08 | -16.48276 | -41.62966 | 39090 ft | 450 kts | 98° |
| 2026-04-30 03:08 | -16.49101 | -41.56501 | 39091 ft | 450 kts | 98° |
| 2026-04-30 03:09 | -16.49925 | -41.50033 | 39092 ft | 450 kts | 98° |
| 2026-04-30 03:09 | -16.50746 | -41.43566 | 39088 ft | 450 kts | 98° |
| 2026-04-30 03:10 | -16.51565 | -41.37102 | 39098 ft | 450 kts | 98° |
| 2026-04-30 03:10 | -16.52381 | -41.30636 | 39100 ft | 450 kts | 98° |
| 2026-04-30 03:11 | -16.53196 | -41.24174 | 39093 ft | 450 kts | 98° |
| 2026-04-30 03:11 | -16.54012 | -41.17688 | 38587 ft | 458 kts | 98° |
| 2026-04-30 03:12 | -16.54425 | -41.14398 | 38013 ft | 456 kts | 98° |
| 2026-04-30 03:12 | -16.54835 | -41.11121 | 37347 ft | 455 kts | 98° |
| 2026-04-30 03:12 | -16.55242 | -41.07864 | 36705 ft | 453 kts | 98° |
| 2026-04-30 03:12 | -16.55436 | -41.06315 | 36394 ft | 453 kts | 98° |
| 2026-04-30 03:13 | -16.55743 | -41.03850 | 35890 ft | 453 kts | 98° |
| 2026-04-30 03:13 | -16.56151 | -41.00586 | 35145 ft | 455 kts | 98° |
| 2026-04-30 03:13 | -16.56565 | -40.97262 | 34426 ft | 456 kts | 98° |
| 2026-04-30 03:13 | -16.56971 | -40.94004 | 33840 ft | 453 kts | 98° |
| 2026-04-30 03:14 | -16.57369 | -40.90799 | 33279 ft | 450 kts | 98° |
| 2026-04-30 03:14 | -16.57773 | -40.87542 | 32715 ft | 446 kts | 98° |
| 2026-04-30 03:14 | -16.58169 | -40.84348 | 32180 ft | 442 kts | 98° |
| 2026-04-30 03:14 | -16.58560 | -40.81185 | 31655 ft | 438 kts | 98° |
| 2026-04-30 03:15 | -16.58948 | -40.78051 | 31139 ft | 435 kts | 98° |
| 2026-04-30 03:15 | -16.59332 | -40.74937 | 30638 ft | 432 kts | 98° |
| 2026-04-30 03:15 | -16.59715 | -40.71839 | 30097 ft | 429 kts | 98° |
| 2026-04-30 03:15 | -16.60094 | -40.68761 | 29513 ft | 426 kts | 97° |
| 2026-04-30 03:16 | -16.60469 | -40.65719 | 28949 ft | 421 kts | 97° |
| 2026-04-30 03:16 | -16.60839 | -40.62705 | 28402 ft | 417 kts | 97° |
| 2026-04-30 03:16 | -16.61206 | -40.59717 | 27872 ft | 413 kts | 97° |
| 2026-04-30 03:16 | -16.61568 | -40.56766 | 27348 ft | 409 kts | 97° |
| 2026-04-30 03:17 | -16.61927 | -40.53837 | 26834 ft | 405 kts | 97° |
| 2026-04-30 03:17 | -16.62281 | -40.50943 | 26325 ft | 401 kts | 96° |
| 2026-04-30 03:17 | -16.62633 | -40.48068 | 25810 ft | 398 kts | 96° |
| 2026-04-30 03:17 | -16.62981 | -40.45209 | 25303 ft | 395 kts | 96° |
| 2026-04-30 03:18 | -16.63327 | -40.42373 | 24776 ft | 393 kts | 96° |
| 2026-04-30 03:18 | -16.63671 | -40.39553 | 24257 ft | 391 kts | 96° |
| 2026-04-30 03:18 | -16.64012 | -40.36751 | 23742 ft | 389 kts | 96° |
| 2026-04-30 03:18 | -16.64351 | -40.33956 | 23152 ft | 387 kts | 96° |
| 2026-04-30 03:19 | -16.64687 | -40.31188 | 22601 ft | 383 kts | 96° |
| 2026-04-30 03:19 | -16.65020 | -40.28445 | 22087 ft | 379 kts | 96° |
| 2026-04-30 03:19 | -16.65354 | -40.25691 | 21570 ft | 376 kts | 96° |
| 2026-04-30 03:19 | -16.65678 | -40.23004 | 21066 ft | 372 kts | 96° |
| 2026-04-30 03:20 | -16.66001 | -40.20332 | 20561 ft | 369 kts | 96° |
| 2026-04-30 03:20 | -16.66320 | -40.17688 | 20072 ft | 367 kts | 96° |
| 2026-04-30 03:20 | -16.66637 | -40.15059 | 19579 ft | 364 kts | 96° |
| 2026-04-30 03:20 | -16.66952 | -40.12439 | 19070 ft | 363 kts | 96° |
| 2026-04-30 03:21 | -16.67265 | -40.09837 | 18562 ft | 361 kts | 96° |
| 2026-04-30 03:21 | -16.67577 | -40.07242 | 18020 ft | 359 kts | 96° |
| 2026-04-30 03:21 | -16.67885 | -40.04675 | 17497 ft | 356 kts | 96° |
| 2026-04-30 03:21 | -16.68191 | -40.02118 | 16978 ft | 353 kts | 96° |
| 2026-04-30 03:22 | -16.68494 | -39.99587 | 16484 ft | 350 kts | 96° |
| 2026-04-30 03:22 | -16.68794 | -39.97079 | 15990 ft | 347 kts | 96° |
| 2026-04-30 03:22 | -16.69090 | -39.94596 | 15512 ft | 344 kts | 96° |
| 2026-04-30 03:22 | -16.69383 | -39.92141 | 15034 ft | 340 kts | 96° |
| 2026-04-30 03:23 | -16.69674 | -39.89698 | 14559 ft | 338 kts | 97° |
| 2026-04-30 03:23 | -16.69962 | -39.87278 | 14083 ft | 335 kts | 96° |
| 2026-04-30 03:23 | -16.70249 | -39.84878 | 13567 ft | 332 kts | 97° |
| 2026-04-30 03:23 | -16.70533 | -39.82495 | 13046 ft | 329 kts | 97° |
| 2026-04-30 03:24 | -16.70813 | -39.80144 | 12553 ft | 326 kts | 97° |
| 2026-04-30 03:24 | -16.71089 | -39.77812 | 12078 ft | 322 kts | 97° |
| 2026-04-30 03:24 | -16.71362 | -39.75507 | 11601 ft | 319 kts | 97° |
| 2026-04-30 03:24 | -16.71633 | -39.73216 | 11134 ft | 316 kts | 97° |
| 2026-04-30 03:25 | -16.71902 | -39.70944 | 10656 ft | 314 kts | 97° |
| 2026-04-30 03:25 | -16.72166 | -39.68712 | 10419 ft | 304 kts | 97° |
| 2026-04-30 03:25 | -16.72420 | -39.66558 | 10244 ft | 293 kts | 97° |
| 2026-04-30 03:25 | -16.72663 | -39.64498 | 10114 ft | 281 kts | 97° |
| 2026-04-30 03:26 | -16.72900 | -39.62498 | 9817 ft | 276 kts | 97° |
| 2026-04-30 03:26 | -16.73136 | -39.60491 | 9453 ft | 274 kts | 97° |
| 2026-04-30 03:26 | -16.73289 | -39.59188 | 9218 ft | 272 kts | 97° |
| 2026-04-30 03:26 | -16.73440 | -39.57909 | 8988 ft | 271 kts | 96° |
| 2026-04-30 03:27 | -16.71572 | -39.51617 | 7803 ft | 264 kts | 41° |
| 2026-04-30 03:27 | -16.70120 | -39.50454 | 7469 ft | 263 kts | 39° |
| 2026-04-30 03:28 | -16.68655 | -39.49313 | 7134 ft | 262 kts | 39° |
| 2026-04-30 03:28 | -16.67194 | -39.48176 | 6795 ft | 262 kts | 39° |
| 2026-04-30 03:28 | -16.65739 | -39.47041 | 6460 ft | 261 kts | 39° |
| 2026-04-30 03:28 | -16.64293 | -39.45907 | 6099 ft | 260 kts | 39° |
| 2026-04-30 03:29 | -16.62854 | -39.44775 | 5749 ft | 259 kts | 39° |
| 2026-04-30 03:29 | -16.61427 | -39.43651 | 5407 ft | 255 kts | 39° |
| 2026-04-30 03:29 | -16.60028 | -39.42547 | 5067 ft | 249 kts | 39° |
| 2026-04-30 03:29 | -16.58656 | -39.41461 | 4738 ft | 247 kts | 39° |
| 2026-04-30 03:30 | -16.57298 | -39.40388 | 4516 ft | 241 kts | 39° |
| 2026-04-30 03:30 | -16.55979 | -39.39347 | 4368 ft | 233 kts | 39° |
| 2026-04-30 03:30 | -16.54707 | -39.38343 | 4252 ft | 227 kts | 40° |
| 2026-04-30 03:30 | -16.53859 | -39.37674 | 4202 ft | 227 kts | 40° |
| 2026-04-30 03:31 | -16.52596 | -39.36674 | 4092 ft | 229 kts | 40° |
| 2026-04-30 03:31 | -16.51410 | -39.35572 | 4006 ft | 228 kts | 58° |
| 2026-04-30 03:31 | -16.50785 | -39.34067 | 3726 ft | 223 kts | 75° |
| 2026-04-30 03:31 | -16.50383 | -39.32545 | 3392 ft | 214 kts | 76° |
| 2026-04-30 03:32 | -16.50009 | -39.31084 | 3081 ft | 204 kts | 76° |
| 2026-04-30 03:32 | -16.49643 | -39.29670 | 2778 ft | 195 kts | 76° |
| 2026-04-30 03:32 | -16.49292 | -39.28344 | 2524 ft | 185 kts | 75° |
| 2026-04-30 03:32 | -16.48957 | -39.27085 | 2282 ft | 175 kts | 76° |
| 2026-04-30 03:33 | -16.48643 | -39.25919 | 2071 ft | 160 kts | 76° |
| 2026-04-30 03:33 | -16.48352 | -39.24836 | 2022 ft | 152 kts | 76° |
| 2026-04-30 03:33 | -16.48079 | -39.23817 | 1994 ft | 142 kts | 76° |
| 2026-04-30 03:33 | -16.47818 | -39.22838 | 1946 ft | 141 kts | 76° |
| 2026-04-30 03:34 | -16.47545 | -39.21823 | 1947 ft | 148 kts | 75° |
| 2026-04-30 03:34 | -16.47267 | -39.20792 | 1904 ft | 147 kts | 76° |
| 2026-04-30 03:34 | -16.46994 | -39.19774 | 1893 ft | 142 kts | 76° |
| 2026-04-30 03:34 | -16.46739 | -39.18815 | 1875 ft | 136 kts | 76° |
| 2026-04-30 03:35 | -16.46485 | -39.17874 | 1828 ft | 133 kts | 76° |
| 2026-04-30 03:35 | -16.46233 | -39.16936 | 1684 ft | 134 kts | 76° |
| 2026-04-30 03:35 | -16.45982 | -39.16007 | 1555 ft | 134 kts | 76° |
| 2026-04-30 03:35 | -16.45729 | -39.15065 | 1381 ft | 135 kts | 76° |
| 2026-04-30 03:36 | -16.45473 | -39.14128 | 1220 ft | 134 kts | 75° |
| 2026-04-30 03:36 | -16.45207 | -39.13185 | 1067 ft | 134 kts | 75° |
| 2026-04-30 03:36 | -16.44952 | -39.12246 | 911 ft | 136 kts | 75° |
| 2026-04-30 03:36 | -16.44697 | -39.11305 | 716 ft | 135 kts | 75° |
| 2026-04-30 03:37 | -16.44452 | -39.10362 | 487 ft | 135 kts | 76° |
| 2026-04-30 03:37 | -16.44205 | -39.09405 | 289 ft | 138 kts | 75° |
| 2026-04-30 03:37 | -16.43945 | -39.08448 | 158 ft | 130 kts | 75° |
| 2026-04-30 03:37 | -16.43758 | -39.07739 | 161 ft | 62 kts | 74° |
| 2026-04-30 03:38 | -16.43665 | -39.07396 | 162 ft | 33 kts | 74° |
| 2026-04-30 03:38 | -16.43639 | -39.07253 | 160 ft | 14 kts | 111° |
| 2026-04-30 03:38 | -16.43611 | -39.07204 | 159 ft | 13 kts | 302° |
| 2026-04-30 03:38 | -16.43637 | -39.07290 | 160 ft | 13 kts | 255° |
| 2026-04-30 03:39 | -16.43660 | -39.07377 | 162 ft | 13 kts | 255° |
| 2026-04-30 03:39 | -16.43684 | -39.07468 | 162 ft | 14 kts | 254° |
| 2026-04-30 03:39 | -16.43712 | -39.07572 | 161 ft | 16 kts | 254° |
| 2026-04-30 03:39 | -16.43745 | -39.07690 | 161 ft | 18 kts | 254° |
| 2026-04-30 03:40 | -16.43775 | -39.07800 | 160 ft | 19 kts | 254° |
| 2026-04-30 03:40 | -16.43809 | -39.07926 | 159 ft | 18 kts | 254° |
| 2026-04-30 03:40 | -16.43843 | -39.08051 | 158 ft | 18 kts | 254° |
| 2026-04-30 03:40 | -16.43887 | -39.08142 | 159 ft | 13 kts | 203° |
| 2026-04-30 03:41 | -16.43973 | -39.08120 | 159 ft | 10 kts | 163° |
| 2026-04-30 03:41 | -16.44021 | -39.08127 | 159 ft | 7 kts | 237° |
| 2026-04-30 03:41 | -16.44057 | -39.08133 | 159 ft | 4 kts | 165° |
| 2026-04-30 03:41 | -16.44072 | -39.08129 | 159 ft | 0 kts | 164° |